createdAt,value
2022-12-25T00:06:47.230Z,5.7
2022-12-25T00:07:54.374Z,5.7
2022-12-25T00:09:01.556Z,5.6
2022-12-25T00:10:08.819Z,5.5
2022-12-25T02:17:39.346Z,5.4
2022-12-25T02:18:49.503Z,5.5
2022-12-25T02:19:57.153Z,5.4
2022-12-25T02:21:12.425Z,5.4
2022-12-25T04:29:21.914Z,5.4
2022-12-25T04:30:33.867Z,5
2022-12-25T04:31:45.799Z,5.1
2022-12-25T04:32:58.201Z,4.9
2022-12-25T04:34:10.434Z,5
2022-12-25T04:39:25.753Z,5
2022-12-25T04:40:32.824Z,4.8
2022-12-25T04:41:39.692Z,4.9
2022-12-25T04:42:46.876Z,4.8
2022-12-25T04:43:54.169Z,4.7
2022-12-25T04:45:39.427Z,4.7
2022-12-25T04:46:46.460Z,4.9
2022-12-25T04:47:53.602Z,4.9
2022-12-25T04:49:00.900Z,4.8
2022-12-25T04:50:07.831Z,4.8
2022-12-25T04:51:16.621Z,4.8
2022-12-25T04:52:23.725Z,4.8
2022-12-25T04:53:30.830Z,4.7
2022-12-25T04:54:37.996Z,4.6
2022-12-25T04:55:44.840Z,4.7
2022-12-25T04:57:09.576Z,4.7
2022-12-25T04:58:16.607Z,4.8
2022-12-25T04:59:23.833Z,4.7
2022-12-25T05:00:30.931Z,4.7
2022-12-25T05:01:37.806Z,4.8
2022-12-25T05:02:45.610Z,4.8
2022-12-25T05:03:52.625Z,4.8
2022-12-25T05:04:59.991Z,4.7
2022-12-25T05:06:07.121Z,4.7
2022-12-25T05:07:14.085Z,4.7
2022-12-25T05:35:26.014Z,4.2
2022-12-25T05:36:33.112Z,4.3
2022-12-25T05:37:40.194Z,4.3
2022-12-25T05:38:47.152Z,4.3
2022-12-25T05:59:46.736Z,4.1
2022-12-25T06:00:53.961Z,4.2
2022-12-25T06:02:01.293Z,4.2
2022-12-25T06:03:08.635Z,4.1
2022-12-25T06:04:15.524Z,4.1
2022-12-25T06:13:07.923Z,4.1
2022-12-25T06:14:14.981Z,4.1
2022-12-25T06:15:22.259Z,4
2022-12-25T06:16:34.108Z,3.9
2022-12-25T06:17:36.658Z,3.9
2022-12-25T06:22:26.658Z,3.9
2022-12-25T06:23:33.698Z,3.9
2022-12-25T06:24:40.799Z,4
2022-12-25T06:25:47.932Z,3.9
2022-12-25T06:26:55.034Z,3.9
2022-12-25T06:42:04.648Z,3.9
2022-12-25T06:43:11.559Z,3.9
2022-12-25T06:44:18.714Z,3.9
2022-12-25T06:45:25.930Z,3.9
2022-12-25T06:54:40.398Z,3.9
2022-12-25T06:55:47.563Z,3.8
2022-12-25T06:56:54.685Z,3.8
2022-12-25T06:58:01.858Z,3.7
2022-12-25T06:59:09.017Z,3.8
2022-12-25T07:00:21.475Z,3.8
2022-12-25T07:01:28.566Z,3.8
2022-12-25T07:02:35.713Z,3.8
2022-12-25T07:03:42.473Z,3.8
2022-12-25T07:04:49.697Z,3.9
2022-12-25T07:06:09.978Z,3.9
2022-12-25T07:07:17.143Z,3.7
2022-12-25T07:08:24.385Z,3.8
2022-12-25T07:09:31.593Z,3.8
2022-12-25T07:10:38.881Z,3.8
2022-12-25T07:38:05.818Z,4.2
2022-12-25T07:39:12.902Z,4.1
2022-12-25T07:40:20.077Z,4.1
2022-12-25T07:41:27.297Z,4.1
2022-12-25T07:42:35.642Z,4.2
2022-12-25T07:43:42.838Z,4.1
2022-12-25T07:44:49.967Z,4.1
2022-12-25T07:45:57.155Z,4.3
2022-12-25T07:47:04.288Z,4.2
2022-12-25T07:52:04.067Z,4.2
2022-12-25T07:53:10.969Z,4.2
2022-12-25T07:54:17.605Z,4.1
2022-12-25T07:55:24.734Z,4.2
2022-12-25T07:56:31.951Z,4.2
2022-12-25T08:00:04.302Z,4.2
2022-12-25T08:01:12.031Z,4.2
2022-12-25T08:02:24.906Z,4.2
2022-12-25T08:03:32.132Z,4.3
2022-12-25T08:05:39.688Z,4.3
2022-12-25T08:06:46.408Z,4.2
2022-12-25T08:07:57.289Z,4.4
2022-12-25T08:09:00.846Z,4.4
2022-12-25T08:10:07.893Z,4.5
2022-12-25T08:14:08.496Z,4.5
2022-12-25T08:15:15.629Z,4.5
2022-12-25T08:16:22.868Z,4.5
2022-12-25T08:17:29.877Z,4.6
2022-12-25T08:19:31.645Z,4.6
2022-12-25T08:20:38.858Z,4.6
2022-12-25T08:21:46.121Z,4.8
2022-12-25T08:22:53.291Z,4.7
2022-12-25T08:24:00.304Z,4.5
2022-12-25T08:27:43.917Z,4.7
2022-12-25T08:28:51.090Z,4.8
2022-12-25T08:29:58.205Z,4.8
2022-12-25T08:31:05.496Z,4.7
2022-12-25T09:14:37.970Z,5.9
2022-12-25T09:15:45.413Z,5.9
2022-12-25T09:16:52.432Z,5.8
2022-12-25T09:17:59.455Z,5.8
2022-12-25T09:40:05.516Z,5.8
2022-12-25T09:41:12.807Z,6.8
2022-12-25T09:42:25.188Z,6.8
2022-12-25T09:43:32.536Z,6.9
2022-12-25T09:44:42.433Z,7
2022-12-25T10:26:47.071Z,8.3
2022-12-25T10:27:53.985Z,8.4
2022-12-25T10:29:06.392Z,8.4
2022-12-25T10:30:18.802Z,8.4
2022-12-25T10:31:50.317Z,8.4
2022-12-25T10:32:57.605Z,8.5
2022-12-25T10:34:04.764Z,8.5
2022-12-25T10:35:12.716Z,8.5
2022-12-25T10:36:22.584Z,8.5
2022-12-25T10:37:33.432Z,8.4
2022-12-25T10:38:40.697Z,8.3
2022-12-25T10:39:47.911Z,8.4
2022-12-25T10:40:55.315Z,8.5
2022-12-25T10:42:07.285Z,8.5
2022-12-25T10:43:42.623Z,8.5
2022-12-25T10:44:52.502Z,8.5
2022-12-25T10:46:02.787Z,8.5
2022-12-25T10:47:12.425Z,8.6
2022-12-25T10:48:19.565Z,8.6
2022-12-25T10:53:01.911Z,8.6
2022-12-25T10:54:08.816Z,8.6
2022-12-25T10:55:25.049Z,8.6
2022-12-25T10:56:28.279Z,8.8
2022-12-25T10:57:35.434Z,8.8
2022-12-25T10:58:47.331Z,8.8
2022-12-25T10:59:54.517Z,8.9
2022-12-25T11:01:01.692Z,8.9
2022-12-25T11:02:08.951Z,8.8
2022-12-25T11:04:16.637Z,8.8
2022-12-25T11:05:28.940Z,9.2
2022-12-25T11:06:35.957Z,8.9
2022-12-25T11:07:42.808Z,9
2022-12-25T11:08:55.134Z,9.2
2022-12-25T11:10:05.059Z,9
2022-12-25T11:11:09.700Z,8.9
2022-12-25T11:12:16.536Z,9
2022-12-25T11:13:23.768Z,9.1
2022-12-25T11:14:30.904Z,9.2
2022-12-25T11:15:37.724Z,9
2022-12-25T11:16:49.916Z,9.2
2022-12-25T11:17:57.127Z,9.2
2022-12-25T11:22:27.336Z,9.2
2022-12-25T11:23:34.465Z,9.2
2022-12-25T11:24:41.777Z,9.1
2022-12-25T11:25:48.992Z,9.2
2022-12-25T11:27:00.431Z,9.2
2022-12-25T11:28:07.414Z,9.3
2022-12-25T11:29:14.560Z,9.2
2022-12-25T11:30:31.872Z,9.4
2022-12-25T11:31:38.766Z,9.5
2022-12-25T11:32:52.200Z,9.5
2022-12-25T11:33:59.074Z,9.5
2022-12-25T11:35:11.424Z,9.7
2022-12-25T11:36:18.618Z,9.6
2022-12-25T11:37:33.316Z,9.6
2022-12-25T11:38:50.305Z,9.7
2022-12-25T11:39:57.315Z,9.6
2022-12-25T11:41:04.350Z,9.6
2022-12-25T11:42:11.353Z,9.6
2022-12-25T11:43:18.464Z,9.6
2022-12-25T11:44:32.461Z,9.6
2022-12-25T11:45:47.404Z,9.6
2022-12-25T11:46:57.662Z,9.6
2022-12-25T11:48:05.652Z,9.7
2022-12-25T11:49:18.060Z,9.7
2022-12-25T11:50:40.895Z,9.7
2022-12-25T11:51:53.895Z,9.7
2022-12-25T11:53:00.660Z,9.7
2022-12-25T11:54:18.225Z,9.7
2022-12-25T11:55:27.811Z,9.7
2022-12-25T11:56:41.466Z,9.7
2022-12-25T11:57:48.648Z,9.5
2022-12-25T11:58:55.587Z,9.3
2022-12-25T12:00:10.434Z,9.6
2022-12-25T12:01:17.724Z,9.6
2022-12-25T12:02:33.064Z,9.4
2022-12-25T12:03:42.397Z,9.4
2022-12-25T12:04:49.520Z,9.3
2022-12-25T12:05:56.685Z,9.4
2022-12-25T12:07:06.486Z,9.5
2022-12-25T12:08:22.155Z,9.5
2022-12-25T12:09:29.243Z,9.5
2022-12-25T12:10:44.309Z,9.6
2022-12-25T12:12:01.699Z,9.4
2022-12-25T12:14:03.226Z,9.4
2022-12-25T12:15:18.435Z,9.5
2022-12-25T12:16:30.882Z,9.6
2022-12-25T12:17:37.723Z,9.6
2022-12-25T12:18:49.960Z,9.7
2022-12-25T12:20:26.750Z,9.7
2022-12-25T12:21:33.829Z,9.4
2022-12-25T12:22:40.866Z,9.7
2022-12-25T12:23:47.990Z,9.6
2022-12-25T12:25:03.758Z,9.5
2022-12-25T12:29:04.745Z,9.5
2022-12-25T12:30:11.836Z,9.4
2022-12-25T12:31:24.155Z,9.5
2022-12-25T12:32:41.777Z,9.6
2022-12-25T12:33:48.896Z,9.6
2022-12-25T12:48:01.829Z,9.4
2022-12-25T12:49:19.119Z,9.4
2022-12-25T12:50:29.417Z,9.4
2022-12-25T12:51:39.733Z,9.4
2022-12-25T12:53:14.088Z,9.4
2022-12-25T12:54:26.337Z,9.6
2022-12-25T12:55:33.669Z,9.5
2022-12-25T12:56:41.147Z,9.4
2022-12-25T12:57:58.846Z,9.3
2022-12-25T12:59:22.887Z,9.4
2022-12-25T13:00:29.886Z,9.5
2022-12-25T13:01:47.824Z,9.4
2022-12-25T13:02:54.770Z,9.4
2022-12-25T13:04:11.991Z,9.3
2022-12-25T13:08:47.507Z,9.3
2022-12-25T13:09:54.759Z,9.3
2022-12-25T13:11:06.887Z,9.4
2022-12-25T13:12:21.770Z,9.3
2022-12-25T13:13:37.241Z,9.3
2022-12-25T13:14:44.479Z,9.5
2022-12-25T13:15:51.509Z,9.4
2022-12-25T13:16:58.688Z,9.4
2022-12-25T13:18:05.701Z,9.4
2022-12-25T13:20:22.823Z,9.4
2022-12-25T13:21:30.048Z,9.3
2022-12-25T13:22:37.154Z,9.2
2022-12-25T13:23:44.271Z,9.2
2022-12-25T13:24:51.396Z,9.1
2022-12-25T13:26:01.165Z,9.2
2022-12-25T13:27:08.311Z,9.2
2022-12-25T13:28:25.691Z,9.2
2022-12-25T13:29:32.831Z,9.2
2022-12-25T13:30:48.117Z,9.1
2022-12-25T13:31:55.169Z,9.1
2022-12-25T13:33:02.156Z,9.1
2022-12-25T13:34:09.299Z,9.1
2022-12-25T13:35:16.487Z,9.1
2022-12-25T13:49:12.980Z,9
2022-12-25T13:50:20.118Z,9.1
2022-12-25T13:51:30.351Z,9.1
2022-12-25T13:52:37.190Z,9.1
2022-12-25T14:26:11.546Z,8.7
2022-12-25T14:27:21.169Z,8.6
2022-12-25T14:28:28.334Z,8.4
2022-12-25T14:29:35.435Z,8.4
2022-12-25T15:25:34.583Z,8.4
2022-12-25T15:26:41.567Z,7.1
2022-12-25T15:27:48.874Z,7.1
2022-12-25T15:28:55.961Z,7
2022-12-25T15:30:11.044Z,7.1
2022-12-25T15:33:50.585Z,7
2022-12-25T15:34:57.412Z,7
2022-12-25T15:36:04.641Z,7
2022-12-25T15:37:11.750Z,7
2022-12-25T15:46:05.058Z,7
2022-12-25T15:47:12.435Z,6.9
2022-12-25T15:48:19.531Z,6.8
2022-12-25T15:49:26.752Z,6.6
2022-12-25T15:50:33.960Z,6.5
2022-12-25T15:51:43.669Z,6.6
2022-12-25T15:52:50.590Z,6.7
2022-12-25T15:53:57.963Z,6.7
2022-12-25T15:55:04.778Z,6.8
2022-12-25T15:56:12.499Z,6.8
2022-12-25T15:57:19.590Z,6.7
2022-12-25T15:58:26.798Z,6.6
2022-12-25T15:59:34.088Z,6.6
2022-12-25T16:00:41.303Z,6.5
2022-12-25T16:01:48.580Z,6.6
2022-12-25T16:02:55.782Z,6.7
2022-12-25T16:04:03.642Z,6.8
2022-12-25T16:05:10.814Z,6.8
2022-12-25T16:06:17.803Z,6.8
2022-12-25T16:07:24.792Z,6.9
2022-12-25T16:08:32.008Z,6.8
2022-12-25T16:09:38.779Z,6.8
2022-12-25T16:10:45.979Z,6.9
2022-12-25T16:11:53.247Z,6.8
2022-12-25T16:13:00.393Z,6.8
2022-12-25T16:14:07.488Z,6.8
2022-12-25T16:15:14.690Z,6.7
2022-12-25T16:16:22.752Z,6.5
2022-12-25T16:17:29.491Z,6.6
2022-12-25T16:18:38.727Z,6.5
2022-12-25T16:19:43.656Z,6.5
2022-12-25T16:20:52.502Z,6.6
2022-12-25T16:21:59.309Z,6.5
2022-12-25T16:23:06.448Z,6.4
2022-12-25T16:24:13.634Z,6.3
2022-12-25T16:25:20.810Z,6.5
2022-12-25T16:26:28.520Z,6.4
2022-12-25T16:27:35.677Z,6.5
2022-12-25T16:28:42.462Z,6.5
2022-12-25T16:29:49.671Z,6.4
2022-12-25T16:30:56.875Z,6.4
2022-12-25T16:32:09.191Z,6.3
2022-12-25T16:33:16.258Z,6.6
2022-12-25T16:34:23.423Z,6.6
2022-12-25T16:35:30.754Z,6.6
2022-12-25T16:36:37.786Z,6.6
2022-12-25T16:37:44.538Z,6.6
2022-12-25T16:38:51.703Z,6.5
2022-12-25T16:39:58.846Z,6.5
2022-12-25T16:41:06.114Z,6.5
2022-12-25T16:42:13.183Z,6.5
2022-12-25T16:43:23.892Z,6.5
2022-12-25T16:44:27.496Z,6.5
2022-12-25T16:45:34.672Z,6.6
2022-12-25T16:46:42.621Z,6.6
2022-12-25T16:47:49.595Z,6.6
2022-12-25T16:48:56.944Z,6.6
2022-12-25T16:50:03.977Z,6.5
2022-12-25T16:51:11.077Z,6.6
2022-12-25T16:52:20.807Z,6.6
2022-12-25T16:53:27.969Z,6.6
2022-12-25T16:54:35.130Z,6.5
2022-12-25T16:55:42.151Z,6.5
2022-12-25T16:56:54.232Z,6.5
2022-12-25T16:58:01.526Z,6.5
2022-12-25T16:59:08.645Z,6.5
2022-12-25T17:00:15.822Z,6.4
2022-12-25T17:01:23.063Z,6.4
2022-12-25T17:02:40.168Z,6.4
2022-12-25T17:03:46.737Z,6.4
2022-12-25T17:04:53.779Z,6.3
2022-12-25T17:06:01.078Z,6.3
2022-12-25T17:07:08.124Z,6.3
2022-12-25T17:08:15.294Z,6.3
2022-12-25T17:09:22.148Z,6.4
2022-12-25T17:10:30.281Z,6.5
2022-12-25T17:11:37.344Z,6.5
2022-12-25T17:12:44.440Z,6.5
2022-12-25T17:13:51.339Z,6.5
2022-12-25T17:15:04.687Z,6.5
2022-12-25T17:16:11.871Z,6.4
2022-12-25T17:17:18.998Z,6.4
2022-12-25T17:18:26.175Z,6.4
2022-12-25T17:19:33.376Z,6.4
2022-12-25T17:20:40.181Z,6.5
2022-12-25T17:21:52.608Z,6.5
2022-12-25T17:22:59.697Z,6.4
2022-12-25T17:24:09.880Z,6.3
2022-12-25T17:25:16.987Z,6.2
2022-12-25T17:26:23.683Z,6.1
2022-12-25T17:27:30.866Z,6.2
2022-12-25T17:28:37.988Z,6.1
2022-12-25T17:29:44.921Z,6.1
2022-12-25T17:31:12.415Z,6.1
2022-12-25T17:32:19.664Z,6.1
2022-12-25T17:33:26.918Z,6.2
2022-12-25T17:34:34.028Z,6.2
2022-12-25T17:35:40.835Z,6.2
2022-12-25T17:36:58.974Z,6.2
2022-12-25T17:38:06.030Z,6.1
2022-12-25T17:39:13.090Z,6.1
2022-12-25T17:40:20.281Z,6.1
2022-12-25T17:41:27.317Z,6.2
2022-12-25T17:42:34.058Z,6.2
2022-12-25T17:43:40.938Z,6.2
2022-12-25T17:44:48.280Z,6.2
2022-12-25T17:45:55.184Z,6.2
2022-12-25T17:47:39.044Z,6.2
2022-12-25T17:48:46.133Z,6.2
2022-12-25T17:49:53.669Z,6.2
2022-12-25T17:51:00.847Z,6.2
2022-12-25T17:52:10.646Z,6.2
2022-12-25T17:54:40.430Z,6.2
2022-12-25T17:55:47.647Z,6.1
2022-12-25T17:56:54.723Z,6.1
2022-12-25T17:58:01.912Z,6.2
2022-12-25T17:59:09.112Z,6.2
2022-12-25T18:27:23.873Z,6.2
2022-12-25T18:28:31.142Z,6.1
2022-12-25T18:29:38.307Z,6.1
2022-12-25T18:30:45.212Z,6.1
2022-12-25T18:31:52.520Z,6.1
2022-12-25T19:52:28.973Z,6
2022-12-25T19:53:36.006Z,6.1
2022-12-25T19:54:42.911Z,6.1
2022-12-25T19:55:50.059Z,6.1
2022-12-25T19:57:52.937Z,6.1
2022-12-25T19:58:59.997Z,6.1
2022-12-25T20:00:06.943Z,6.1
2022-12-25T20:01:14.137Z,6.1
2022-12-25T20:02:21.295Z,6
2022-12-25T20:03:45.688Z,6
2022-12-25T20:04:50.858Z,6.1
2022-12-25T20:05:58.008Z,6
2022-12-25T20:07:04.885Z,6
2022-12-25T20:08:12.102Z,6
2022-12-25T20:24:11.679Z,6
2022-12-25T20:25:18.865Z,5.9
2022-12-25T20:26:25.986Z,5.9
2022-12-25T20:27:33.329Z,5.8
2022-12-25T20:28:40.608Z,5.9
2022-12-25T20:29:47.666Z,5.9
2022-12-25T20:30:54.863Z,6
2022-12-25T20:32:02.070Z,6
2022-12-25T20:33:09.137Z,6
2022-12-25T21:21:07.099Z,6
2022-12-25T21:22:14.066Z,5.8
2022-12-25T21:23:21.185Z,5.8
2022-12-25T21:24:28.383Z,5.8
2022-12-25T21:25:35.679Z,5.9
2022-12-25T21:27:21.609Z,5.9
2022-12-25T21:28:28.473Z,5.9
2022-12-25T21:29:35.599Z,5.9
2022-12-25T21:30:42.551Z,5.9
2022-12-25T21:31:50.447Z,5.8
2022-12-25T21:33:05.989Z,5.8
2022-12-25T21:34:18.325Z,5.9
2022-12-25T21:35:25.413Z,5.9
2022-12-25T21:36:32.563Z,5.9
2022-12-25T21:37:39.366Z,5.8
2022-12-25T21:48:47.638Z,5.7
2022-12-25T21:49:54.817Z,5.6
2022-12-25T21:51:07.077Z,5.6
2022-12-25T21:52:19.392Z,5.6
2022-12-25T21:57:49.761Z,5.6
2022-12-25T21:58:56.868Z,5.6
2022-12-25T22:00:04.084Z,5.6
2022-12-25T22:01:11.942Z,5.6
2022-12-25T22:02:19.249Z,5.6
2022-12-25T22:22:29.450Z,5.6
2022-12-25T22:23:36.442Z,5.6
2022-12-25T22:24:43.232Z,5.6
2022-12-25T22:25:50.445Z,5.5
2022-12-25T22:37:29.681Z,5.5
2022-12-25T22:38:36.590Z,5.4
2022-12-25T22:39:43.386Z,5.4
2022-12-25T22:40:50.573Z,5.4
2022-12-25T22:41:57.786Z,5.3
2022-12-25T22:44:06.588Z,5.3
2022-12-25T22:44:41.921Z,5.3
2022-12-25T22:45:49.156Z,5.3
2022-12-25T22:46:56.201Z,5.3
2022-12-25T22:48:03.437Z,5.3
2022-12-25T23:02:32.409Z,5.3
2022-12-25T23:03:39.563Z,5.3
2022-12-25T23:04:46.604Z,5.3
2022-12-25T23:05:53.840Z,5.3
2022-12-25T23:24:27.022Z,5.3
2022-12-25T23:25:39.299Z,5
2022-12-25T23:26:51.312Z,5
2022-12-25T23:27:58.473Z,5.1
2022-12-25T23:29:05.612Z,5.1
2022-12-25T23:34:20.581Z,5.1
2022-12-25T23:35:27.656Z,5
2022-12-25T23:36:34.801Z,5
2022-12-25T23:37:41.610Z,5
2022-12-25T23:38:48.795Z,5
2022-12-25T23:42:43.204Z,5
2022-12-25T23:43:50.514Z,5
2022-12-25T23:44:57.648Z,5
2022-12-25T23:46:04.751Z,5
2022-12-25T23:48:13.772Z,5
2022-12-25T23:49:20.623Z,5
2022-12-25T23:50:27.750Z,5
2022-12-25T23:51:34.931Z,5
2022-12-25T23:52:41.773Z,5
2022-12-25T23:57:46.852Z,5
2022-12-25T23:58:53.727Z,5.1
